Volga-4011 — UBNJ — position and weather

sailwx.info

Track history (hours):
 
Tides and Currents Weather Stations Pressure Air Temp Water Temp Dewpoint Dewpoint Depression Visibility Wind Speed Wind Dir Waves Ship Positions

Volga-4011

Last reported at 2017-Jul-13 19:05 UTC. Time now 2017-Jul-25 14:49 UTC.
Position N 31°52' E 123°50'.
Warning: this ship's position is 11 days out of date.

Length 140 m; draft 3.6 m.

Type: Ship. MMSI: 273358200.

Date/timePositionNaut miles runAvg speedWind from/ knotsBaromVisibWave heightAir tempDewpointWater temp
2017-Jul-13 19:05N 31°52' E 123°50'210.9
2017-Jul-13 18:54N 31°51' E 123°48'510.6
2017-Jul-13 18:25N 31°47' E 123°43'410.1
2017-Jul-13 17:58N 31°44' E 123°39'6 9.7
2017-Jul-13 17:22N 31°41' E 123°34'6 9.2
2017-Jul-13 16:42N 31°36' E 123°29'2 9.1
2017-Jul-13 16:27N 31°35' E 123°27'4 9.1
2017-Jul-13 16:00N 31°32' E 123°24'4 8.4
2017-Jul-13 15:30N 31°29' E 123°21'4 8.4
2017-Jul-13 15:00N 31°26' E 123°17'4 8.5
2017-Jul-13 14:30N 31°23' E 123°13'4 8.3
2017-Jul-13 13:59N 31°20' E 123°10'5 9.1
2017-Jul-13 13:29N 31°17' E 123°06'4 9.0
2017-Jul-13 13:00N 31°14' E 123°02'4 9.1
2017-Jul-13 12:30N 31°11' E 122°59'4 9.0
2017-Jul-13 12:00N 31°08' E 122°55'5 8.5
2017-Jul-13 11:29N 31°04' E 122°51'4 8.7
2017-Jul-13 11:00N 31°01' E 122°48'4 8.4
2017-Jul-13 10:30N 30°59' E 122°44'5 9.9
2017-Jul-13 10:01N 30°58' E 122°38'510.7
2017-Jul-13 09:30N 30°59' E 122°32'611.3
2017-Jul-13 09:00N 31°00' E 122°26'612.1
2017-Jul-13 08:30N 31°02' E 122°19'611.6
2017-Jul-13 08:00N 31°03' E 122°12'510.4
2017-Jul-13 07:30N 31°04' E 122°06'5 9.8
2017-Jul-13 07:00N 31°05' E 122°01'4 8.6
2017-Jul-13 06:31N 31°07' E 121°56'4 7.5
2017-Jul-13 06:00N 31°09' E 121°53'3 6.6
2017-Jul-13 05:31N 31°11' E 121°50'3 6.8
2017-Jul-13 05:01N 31°14' E 121°47'4 7.9
2017-Jul-13 04:30N 31°17' E 121°44'4 8.7
2017-Jul-13 04:00N 31°20' E 121°41'510.2
2017-Jul-13 03:30N 31°23' E 121°36'510.8
2017-Jul-13 03:01N 31°25' E 121°30'4 8.5
2017-Jul-13 02:30N 31°28' E 121°27'4 8.1
2017-Jul-13 02:01N 31°31' E 121°23'4 9.0
2017-Jul-13 01:31N 31°34' E 121°19'611.8
2017-Jul-13 01:00N 31°38' E 121°14'713.3
2017-Jul-13 00:30N 31°42' E 121°08'610.6
2017-Jul-12 23:59N 31°45' E 121°02'0 0.0
2017-Jul-12 21:07N 31°45' E 121°02'0 0.0
2017-Jul-12 20:55N 31°45' E 121°02'0 0.0
2017-Jul-12 20:25N 31°45' E 121°02'0 0.0
2017-Jul-12 19:55N 31°45' E 121°02'0 0.0
2017-Jul-12 19:25N 31°45' E 121°02'0 0.0
2017-Jul-12 18:55N 31°45' E 121°02'0 0.0
2017-Jul-12 18:28N 31°45' E 121°02'0 0.0
2017-Jul-12 17:43N 31°45' E 121°02'0 0.0
2017-Jul-12 17:25N 31°45' E 121°02'0 0.0
2017-Jul-12 16:52N 31°45' E 121°02'0 0.0
2017-Jul-12 16:13N 31°45' E 121°02'0 0.0
2017-Jul-12 15:55N 31°45' E 121°02'0 0.0
2017-Jul-12 15:28N 31°45' E 121°02'0 0.0
2017-Jul-12 14:55N 31°45' E 121°02'0 0.0
2017-Jul-12 13:58N 31°45' E 121°02'0 0.0
2017-Jul-12 13:25N 31°45' E 121°02'0 0.0
2017-Jul-12 11:49N 31°45' E 121°02'0 0.0
2017-Jul-12 11:13N 31°45' E 121°02'0 0.0
2017-Jul-12 10:55N 31°45' E 121°02'0 0.0
2017-Jul-12 10:13N 31°45' E 121°02'0 0.0
2017-Jul-12 09:49N 31°45' E 121°02'0 0.0
2017-Jul-12 09:07N 31°45' E 121°02'0 0.0
2017-Jul-12 07:25N 31°45' E 121°02'0 0.0
2017-Jul-12 06:37N 31°45' E 121°02'0 0.0
2017-Jul-12 06:19N 31°45' E 121°02'0 0.0
2017-Jul-12 05:58N 31°45' E 121°02'0 0.0
2017-Jul-12 05:28N 31°45' E 121°02'0 0.0
2017-Jul-12 04:55N 31°45' E 121°02'0 0.0
2017-Jul-12 04:25N 31°45' E 121°02'0 0.0
2017-Jul-12 03:46N 31°45' E 121°02'0 0.0
2017-Jul-12 03:13N 31°45' E 121°02'0 0.0
2017-Jul-12 02:55N 31°45' E 121°02'0 0.0
2017-Jul-12 02:25N 31°45' E 121°02'0 0.0
2017-Jul-12 01:55N 31°45' E 121°02'0 0.0
2017-Jul-11 23:55N 31°45' E 121°02'0 0.0
2017-Jul-11 22:37N 31°45' E 121°02'0 0.0
2017-Jul-11 22:19N 31°45' E 121°02'0 0.0
2017-Jul-11 21:55N 31°45' E 121°02'0 0.0
2017-Jul-11 19:10N 31°45' E 121°02'0 0.0
2017-Jul-11 18:55N 31°45' E 121°02'0 0.0
2017-Jul-11 18:25N 31°45' E 121°02'0 0.0
2017-Jul-11 17:52N 31°45' E 121°02'0 0.0
2017-Jul-11 17:25N 31°45' E 121°02'0 0.0
2017-Jul-11 16:49N 31°45' E 121°02'0 0.0
2017-Jul-11 16:25N 31°45' E 121°02'0 0.0
2017-Jul-11 15:49N 31°45' E 121°02'0 0.0
2017-Jul-11 15:28N 31°45' E 121°02'0 0.0
2017-Jul-11 14:55N 31°45' E 121°02'0 0.0
2017-Jul-11 14:19N 31°45' E 121°02'0 0.0
2017-Jul-11 13:49N 31°45' E 121°02'0 0.0
2017-Jul-11 13:25N 31°45' E 121°02'0 0.0
2017-Jul-11 12:37N 31°45' E 121°02'0 0.0
2017-Jul-11 12:25N 31°45' E 121°02'0 0.0
2017-Jul-11 11:49N 31°45' E 121°02'0 0.0
2017-Jul-11 11:25N 31°45' E 121°02'0 0.0
2017-Jul-11 10:55N 31°45' E 121°02'0 0.1
2017-Jul-11 10:14N 31°45' E 121°02'1 2.9
2017-Jul-11 09:59N 31°44' E 121°03'2 3.4
2017-Jul-11 09:29N 31°44' E 121°05'2 4.5
2017-Jul-11 09:00N 31°44' E 121°08'0 0.3
2017-Jul-11 08:14N 31°44' E 121°08'0 0.2
2017-Jul-11 07:56N 31°44' E 121°08'0 0.1
2017-Jul-11 07:26N 31°44' E 121°08'0 0.0
2017-Jul-11 06:56N 31°44' E 121°08'0 0.1
2017-Jul-11 06:14N 31°44' E 121°08'0 0.1
2017-Jul-11 05:50N 31°44' E 121°08'0 0.0
2017-Jul-11 03:32N 31°44' E 121°08'0 0.0
2017-Jul-10 21:44N 31°44' E 121°08'0 0.0
2017-Jul-10 21:14N 31°44' E 121°08'0 0.0
2017-Jul-10 20:50N 31°44' E 121°08'0 0.0
2017-Jul-10 20:26N 31°44' E 121°08'0 0.1
2017-Jul-10 19:44N 31°44' E 121°08'0 0.2
2017-Jul-10 19:26N 31°44' E 121°08'0 0.1
2017-Jul-10 18:56N 31°44' E 121°08'0 0.0
2017-Jul-10 18:26N 31°44' E 121°08'0 0.0
2017-Jul-10 17:56N 31°44' E 121°08'0 0.0
2017-Jul-10 17:20N 31°44' E 121°08'0 0.1
2017-Jul-10 16:38N 31°44' E 121°08'0 0.3
2017-Jul-10 16:26N 31°44' E 121°08'0 0.1
2017-Jul-10 15:50N 31°44' E 121°08'0 0.0
2017-Jul-10 08:50N 31°44' E 121°08'0 0.0
2017-Jul-10 08:26N 31°44' E 121°08'0 0.0
2017-Jul-10 06:38N 31°44' E 121°08'0 0.0
2017-Jul-10 06:29N 31°44' E 121°08'0 0.0
2017-Jul-10 05:56N 31°44' E 121°08'0 0.1
2017-Jul-10 05:20N 31°44' E 121°08'0 0.1
2017-Jul-10 04:59N 31°44' E 121°08'0 0.0
2017-Jul-10 04:30N 31°44' E 121°08'0 0.0
2017-Jul-10 03:50N 31°44' E 121°08'0 0.2
2017-Jul-10 03:30N 31°44' E 121°08'2 5.0
2017-Jul-10 03:00N 31°44' E 121°05'2 4.8
2017-Jul-10 02:30N 31°45' E 121°02'0 0.0
2017-Jul-10 01:42N 31°45' E 121°02'0 0.0
2017-Jul-10 01:18N 31°45' E 121°02'0 0.0
2017-Jul-09 22:36N 31°45' E 121°02'0 0.0
2017-Jul-09 22:27N 31°45' E 121°02'0 0.0
2017-Jul-09 20:23N 31°45' E 121°02'0 0.1
2017-Jul-09 19:59N 31°45' E 121°02'0 0.0
2017-Jul-09 17:16N 31°45' E 121°02'0 0.0
2017-Jul-09 16:46N 31°45' E 121°02'0 0.0
2017-Jul-09 16:28N 31°45' E 121°02'0 0.0
2017-Jul-09 11:40N 31°45' E 121°02'0 0.0
2017-Jul-09 09:58N 31°45' E 121°02'0 0.0
2017-Jul-09 09:23N 31°45' E 121°02'0 0.0
2017-Jul-09 08:59N 31°45' E 121°02'0 0.0
2017-Jul-09 08:30N 31°45' E 121°02'0 0.1
2017-Jul-09 07:58N 31°45' E 121°02'0 0.1
2017-Jul-09 07:30N 31°45' E 121°02'1 2.6
2017-Jul-09 07:00N 31°44' E 121°04'4 8.2
2017-Jul-09 06:29N 31°43' E 121°08'4 8.2
2017-Jul-09 06:00N 31°40' E 121°12'4 8.9
2017-Jul-09 05:30N 31°37' E 121°16'4 8.9
2017-Jul-09 05:00N 31°34' E 121°19'4 8.9
2017-Jul-09 04:30N 31°31' E 121°23'5 9.0
2017-Jul-09 04:00N 31°28' E 121°27'5 9.4
2017-Jul-09 03:30N 31°25' E 121°31'5 9.5
2017-Jul-09 03:00N 31°23' E 121°36'5 9.7
2017-Jul-09 02:30N 31°20' E 121°41'5 9.3
2017-Jul-09 02:00N 31°17' E 121°45'5 9.6
2017-Jul-09 01:30N 31°13' E 121°48'5 9.5
2017-Jul-09 00:59N 31°10' E 121°52'4 8.7
2017-Jul-09 00:30N 31°07' E 121°56'5 9.2
2017-Jul-09 00:00N 31°05' E 122°01'5 9.1
2017-Jul-08 23:30N 31°04' E 122°06'5 9.1
2017-Jul-08 23:00N 31°03' E 122°11'7 6.5
2017-Jul-08 21:55N 31°02' E 122°20'2 5.7
2017-Jul-08 21:30N 31°02' E 122°22'3 5.8
2017-Jul-08 20:57N 31°01' E 122°26'6 5.4
2017-Jul-08 19:48N 30°60' E 122°33'2 5.4
2017-Jul-08 19:30N 31°00' E 122°35'0 0.3
2017-Jul-08 18:34N 31°01' E 122°35'0 0.0
2017-Jul-08 18:28N 31°01' E 122°35'0 0.0
2017-Jul-08 17:55N 31°01' E 122°35'0 0.0
2017-Jul-08 16:43N 31°01' E 122°35'0 0.0
2017-Jul-08 16:13N 31°01' E 122°35'0 0.0
2017-Jul-08 15:46N 31°01' E 122°35'0 0.1
2017-Jul-08 15:13N 31°01' E 122°35'0 0.0
2017-Jul-08 14:58N 31°01' E 122°35'0 0.0
2017-Jul-08 13:49N 31°01' E 122°35'0 0.0
2017-Jul-08 13:25N 31°01' E 122°35'0 0.0
2017-Jul-08 12:46N 31°01' E 122°35'0 0.0
2017-Jul-08 12:22N 31°01' E 122°35'0 0.1
2017-Jul-08 10:53N 31°01' E 122°35'4 6.7
2017-Jul-08 10:20N 31°00' E 122°39'4 9.0
2017-Jul-08 09:51N 31°02' E 122°44'3 8.9
2017-Jul-08 09:30N 31°05' E 122°46'4 8.7
2017-Jul-08 09:00N 31°08' E 122°50'4 8.6
2017-Jul-08 08:30N 31°10' E 122°54'  
Track history (hours):
 
Tides and Currents Weather Stations Pressure Air Temp Water Temp Dewpoint Dewpoint Depression Visibility Wind Speed Wind Dir Waves Ship Positions

Volga-4011

Last reported at 2017-Jul-13 19:05 UTC. Time now 2017-Jul-25 14:49 UTC.
Position N 31°52' E 123°50'.
Warning: this ship's position is 11 days out of date.

Length 140 m; draft 3.6 m.

Type: Ship. MMSI: 273358200.

Date/timePositionNaut miles runAvg speedWind from/ knotsBaromVisibWave heightAir tempDewpointWater temp
2017-Jul-13 19:05N 31°52' E 123°50'210.9
2017-Jul-13 18:54N 31°51' E 123°48'510.6
2017-Jul-13 18:25N 31°47' E 123°43'410.1
2017-Jul-13 17:58N 31°44' E 123°39'6 9.7
2017-Jul-13 17:22N 31°41' E 123°34'6 9.2
2017-Jul-13 16:42N 31°36' E 123°29'2 9.1
2017-Jul-13 16:27N 31°35' E 123°27'4 9.1
2017-Jul-13 16:00N 31°32' E 123°24'4 8.4
2017-Jul-13 15:30N 31°29' E 123°21'4 8.4
2017-Jul-13 15:00N 31°26' E 123°17'4 8.5
2017-Jul-13 14:30N 31°23' E 123°13'4 8.3
2017-Jul-13 13:59N 31°20' E 123°10'5 9.1
2017-Jul-13 13:29N 31°17' E 123°06'4 9.0
2017-Jul-13 13:00N 31°14' E 123°02'4 9.1
2017-Jul-13 12:30N 31°11' E 122°59'4 9.0
2017-Jul-13 12:00N 31°08' E 122°55'5 8.5
2017-Jul-13 11:29N 31°04' E 122°51'4 8.7
2017-Jul-13 11:00N 31°01' E 122°48'4 8.4
2017-Jul-13 10:30N 30°59' E 122°44'5 9.9
2017-Jul-13 10:01N 30°58' E 122°38'510.7
2017-Jul-13 09:30N 30°59' E 122°32'611.3
2017-Jul-13 09:00N 31°00' E 122°26'612.1
2017-Jul-13 08:30N 31°02' E 122°19'611.6
2017-Jul-13 08:00N 31°03' E 122°12'510.4
2017-Jul-13 07:30N 31°04' E 122°06'5 9.8
2017-Jul-13 07:00N 31°05' E 122°01'4 8.6
2017-Jul-13 06:31N 31°07' E 121°56'4 7.5
2017-Jul-13 06:00N 31°09' E 121°53'3 6.6
2017-Jul-13 05:31N 31°11' E 121°50'3 6.8
2017-Jul-13 05:01N 31°14' E 121°47'4 7.9
2017-Jul-13 04:30N 31°17' E 121°44'4 8.7
2017-Jul-13 04:00N 31°20' E 121°41'510.2
2017-Jul-13 03:30N 31°23' E 121°36'510.8
2017-Jul-13 03:01N 31°25' E 121°30'4 8.5
2017-Jul-13 02:30N 31°28' E 121°27'4 8.1
2017-Jul-13 02:01N 31°31' E 121°23'4 9.0
2017-Jul-13 01:31N 31°34' E 121°19'611.8
2017-Jul-13 01:00N 31°38' E 121°14'713.3
2017-Jul-13 00:30N 31°42' E 121°08'610.6
2017-Jul-12 23:59N 31°45' E 121°02'0 0.0
2017-Jul-12 21:07N 31°45' E 121°02'0 0.0
2017-Jul-12 20:55N 31°45' E 121°02'0 0.0
2017-Jul-12 20:25N 31°45' E 121°02'0 0.0
2017-Jul-12 19:55N 31°45' E 121°02'0 0.0
2017-Jul-12 19:25N 31°45' E 121°02'0 0.0
2017-Jul-12 18:55N 31°45' E 121°02'0 0.0
2017-Jul-12 18:28N 31°45' E 121°02'0 0.0
2017-Jul-12 17:43N 31°45' E 121°02'0 0.0
2017-Jul-12 17:25N 31°45' E 121°02'0 0.0
2017-Jul-12 16:52N 31°45' E 121°02'0 0.0
2017-Jul-12 16:13N 31°45' E 121°02'0 0.0
2017-Jul-12 15:55N 31°45' E 121°02'0 0.0
2017-Jul-12 15:28N 31°45' E 121°02'0 0.0
2017-Jul-12 14:55N 31°45' E 121°02'0 0.0
2017-Jul-12 13:58N 31°45' E 121°02'0 0.0
2017-Jul-12 13:25N 31°45' E 121°02'0 0.0
2017-Jul-12 11:49N 31°45' E 121°02'0 0.0
2017-Jul-12 11:13N 31°45' E 121°02'0 0.0
2017-Jul-12 10:55N 31°45' E 121°02'0 0.0
2017-Jul-12 10:13N 31°45' E 121°02'0 0.0
2017-Jul-12 09:49N 31°45' E 121°02'0 0.0
2017-Jul-12 09:07N 31°45' E 121°02'0 0.0
2017-Jul-12 07:25N 31°45' E 121°02'0 0.0
2017-Jul-12 06:37N 31°45' E 121°02'0 0.0
2017-Jul-12 06:19N 31°45' E 121°02'0 0.0
2017-Jul-12 05:58N 31°45' E 121°02'0 0.0
2017-Jul-12 05:28N 31°45' E 121°02'0 0.0
2017-Jul-12 04:55N 31°45' E 121°02'0 0.0
2017-Jul-12 04:25N 31°45' E 121°02'0 0.0
2017-Jul-12 03:46N 31°45' E 121°02'0 0.0
2017-Jul-12 03:13N 31°45' E 121°02'0 0.0
2017-Jul-12 02:55N 31°45' E 121°02'0 0.0
2017-Jul-12 02:25N 31°45' E 121°02'0 0.0
2017-Jul-12 01:55N 31°45' E 121°02'0 0.0
2017-Jul-11 23:55N 31°45' E 121°02'0 0.0
2017-Jul-11 22:37N 31°45' E 121°02'0 0.0
2017-Jul-11 22:19N 31°45' E 121°02'0 0.0
2017-Jul-11 21:55N 31°45' E 121°02'0 0.0
2017-Jul-11 19:10N 31°45' E 121°02'0 0.0
2017-Jul-11 18:55N 31°45' E 121°02'0 0.0
2017-Jul-11 18:25N 31°45' E 121°02'0 0.0
2017-Jul-11 17:52N 31°45' E 121°02'0 0.0
2017-Jul-11 17:25N 31°45' E 121°02'0 0.0
2017-Jul-11 16:49N 31°45' E 121°02'0 0.0
2017-Jul-11 16:25N 31°45' E 121°02'0 0.0
2017-Jul-11 15:49N 31°45' E 121°02'0 0.0
2017-Jul-11 15:28N 31°45' E 121°02'0 0.0
2017-Jul-11 14:55N 31°45' E 121°02'0 0.0
2017-Jul-11 14:19N 31°45' E 121°02'0 0.0
2017-Jul-11 13:49N 31°45' E 121°02'0 0.0
2017-Jul-11 13:25N 31°45' E 121°02'0 0.0
2017-Jul-11 12:37N 31°45' E 121°02'0 0.0
2017-Jul-11 12:25N 31°45' E 121°02'0 0.0
2017-Jul-11 11:49N 31°45' E 121°02'0 0.0
2017-Jul-11 11:25N 31°45' E 121°02'0 0.0
2017-Jul-11 10:55N 31°45' E 121°02'0 0.1
2017-Jul-11 10:14N 31°45' E 121°02'1 2.9
2017-Jul-11 09:59N 31°44' E 121°03'2 3.4
2017-Jul-11 09:29N 31°44' E 121°05'2 4.5
2017-Jul-11 09:00N 31°44' E 121°08'0 0.3
2017-Jul-11 08:14N 31°44' E 121°08'0 0.2
2017-Jul-11 07:56N 31°44' E 121°08'0 0.1
2017-Jul-11 07:26N 31°44' E 121°08'0 0.0
2017-Jul-11 06:56N 31°44' E 121°08'0 0.1
2017-Jul-11 06:14N 31°44' E 121°08'0 0.1
2017-Jul-11 05:50N 31°44' E 121°08'0 0.0
2017-Jul-11 03:32N 31°44' E 121°08'0 0.0
2017-Jul-10 21:44N 31°44' E 121°08'0 0.0
2017-Jul-10 21:14N 31°44' E 121°08'0 0.0
2017-Jul-10 20:50N 31°44' E 121°08'0 0.0
2017-Jul-10 20:26N 31°44' E 121°08'0 0.1
2017-Jul-10 19:44N 31°44' E 121°08'0 0.2
2017-Jul-10 19:26N 31°44' E 121°08'0 0.1
2017-Jul-10 18:56N 31°44' E 121°08'0 0.0
2017-Jul-10 18:26N 31°44' E 121°08'0 0.0
2017-Jul-10 17:56N 31°44' E 121°08'0 0.0
2017-Jul-10 17:20N 31°44' E 121°08'0 0.1
2017-Jul-10 16:38N 31°44' E 121°08'0 0.3
2017-Jul-10 16:26N 31°44' E 121°08'0 0.1
2017-Jul-10 15:50N 31°44' E 121°08'0 0.0
2017-Jul-10 08:50N 31°44' E 121°08'0 0.0
2017-Jul-10 08:26N 31°44' E 121°08'0 0.0
2017-Jul-10 06:38N 31°44' E 121°08'0 0.0
2017-Jul-10 06:29N 31°44' E 121°08'0 0.0
2017-Jul-10 05:56N 31°44' E 121°08'0 0.1
2017-Jul-10 05:20N 31°44' E 121°08'0 0.1
2017-Jul-10 04:59N 31°44' E 121°08'0 0.0
2017-Jul-10 04:30N 31°44' E 121°08'0 0.0
2017-Jul-10 03:50N 31°44' E 121°08'0 0.2
2017-Jul-10 03:30N 31°44' E 121°08'2 5.0
2017-Jul-10 03:00N 31°44' E 121°05'2 4.8
2017-Jul-10 02:30N 31°45' E 121°02'0 0.0
2017-Jul-10 01:42N 31°45' E 121°02'0 0.0
2017-Jul-10 01:18N 31°45' E 121°02'0 0.0
2017-Jul-09 22:36N 31°45' E 121°02'0 0.0
2017-Jul-09 22:27N 31°45' E 121°02'0 0.0
2017-Jul-09 20:23N 31°45' E 121°02'0 0.1
2017-Jul-09 19:59N 31°45' E 121°02'0 0.0
2017-Jul-09 17:16N 31°45' E 121°02'0 0.0
2017-Jul-09 16:46N 31°45' E 121°02'0 0.0
2017-Jul-09 16:28N 31°45' E 121°02'0 0.0
2017-Jul-09 11:40N 31°45' E 121°02'0 0.0
2017-Jul-09 09:58N 31°45' E 121°02'0 0.0
2017-Jul-09 09:23N 31°45' E 121°02'0 0.0
2017-Jul-09 08:59N 31°45' E 121°02'0 0.0
2017-Jul-09 08:30N 31°45' E 121°02'0 0.1
2017-Jul-09 07:58N 31°45' E 121°02'0 0.1
2017-Jul-09 07:30N 31°45' E 121°02'1 2.6
2017-Jul-09 07:00N 31°44' E 121°04'4 8.2
2017-Jul-09 06:29N 31°43' E 121°08'4 8.2
2017-Jul-09 06:00N 31°40' E 121°12'4 8.9
2017-Jul-09 05:30N 31°37' E 121°16'4 8.9
2017-Jul-09 05:00N 31°34' E 121°19'4 8.9
2017-Jul-09 04:30N 31°31' E 121°23'5 9.0
2017-Jul-09 04:00N 31°28' E 121°27'5 9.4
2017-Jul-09 03:30N 31°25' E 121°31'5 9.5
2017-Jul-09 03:00N 31°23' E 121°36'5 9.7
2017-Jul-09 02:30N 31°20' E 121°41'5 9.3
2017-Jul-09 02:00N 31°17' E 121°45'5 9.6
2017-Jul-09 01:30N 31°13' E 121°48'5 9.5
2017-Jul-09 00:59N 31°10' E 121°52'4 8.7
2017-Jul-09 00:30N 31°07' E 121°56'5 9.2
2017-Jul-09 00:00N 31°05' E 122°01'5 9.1
2017-Jul-08 23:30N 31°04' E 122°06'5 9.1
2017-Jul-08 23:00N 31°03' E 122°11'7 6.5
2017-Jul-08 21:55N 31°02' E 122°20'2 5.7
2017-Jul-08 21:30N 31°02' E 122°22'3 5.8
2017-Jul-08 20:57N 31°01' E 122°26'6 5.4
2017-Jul-08 19:48N 30°60' E 122°33'2 5.4
2017-Jul-08 19:30N 31°00' E 122°35'0 0.3
2017-Jul-08 18:34N 31°01' E 122°35'0 0.0
2017-Jul-08 18:28N 31°01' E 122°35'0 0.0
2017-Jul-08 17:55N 31°01' E 122°35'0 0.0
2017-Jul-08 16:43N 31°01' E 122°35'0 0.0
2017-Jul-08 16:13N 31°01' E 122°35'0 0.0
2017-Jul-08 15:46N 31°01' E 122°35'0 0.1
2017-Jul-08 15:13N 31°01' E 122°35'0 0.0
2017-Jul-08 14:58N 31°01' E 122°35'0 0.0
2017-Jul-08 13:49N 31°01' E 122°35'0 0.0
2017-Jul-08 13:25N 31°01' E 122°35'0 0.0
2017-Jul-08 12:46N 31°01' E 122°35'0 0.0
2017-Jul-08 12:22N 31°01' E 122°35'0 0.1
2017-Jul-08 10:53N 31°01' E 122°35'4 6.7
2017-Jul-08 10:20N 31°00' E 122°39'4 9.0
2017-Jul-08 09:51N 31°02' E 122°44'3 8.9
2017-Jul-08 09:30N 31°05' E 122°46'4 8.7
2017-Jul-08 09:00N 31°08' E 122°50'4 8.6
2017-Jul-08 08:30N 31°10' E 122°54'  

Dump ship's entire track history